Time;durP1;ratioP1;P1;durP2;ratioP2;P2;SDS_P1;SDS_P2;PMS_P1;PMS_P2;Temp;Humidity;BMP_temperature;BMP_pressure;BME280_temperature;BME280_humidity;BME280_pressure;Samples;Min_cycle;Max_cycle;Signal;HPM_P1;HPM_P2
2022/10/01 00:02:31;;;;;;;7.60;5.50;;;13.10;99.90;;;;;;2616788;39;20858;-73
2022/10/01 00:04:57;;;;;;;7.53;6.20;;;13.10;99.90;;;;;;2617377;39;20539;-71
2022/10/01 00:10:44;;;;;;;7.57;5.97;;;13.10;99.90;;;;;;2617439;54;20383;-73
2022/10/01 00:16:32;;;;;;;6.20;5.70;;;13.10;99.90;;;;;;2616586;54;20134;-73
2022/10/01 00:22:20;;;;;;;6.27;5.77;;;13.20;99.90;;;;;;2617163;54;20255;-71
2022/10/01 00:28:10;;;;;;;7.55;6.25;;;13.10;99.90;;;;;;2617477;54;20134;-72
2022/10/01 00:34:01;;;;;;;6.10;5.50;;;13.00;99.90;;;;;;2617023;54;20434;-72
2022/10/01 00:39:49;;;;;;;8.10;5.53;;;12.70;99.90;;;;;;2617216;54;20396;-72
2022/10/01 00:45:37;;;;;;;8.07;7.47;;;12.50;99.90;;;;;;2616505;54;20130;-72
2022/10/01 00:51:28;;;;;;;7.30;6.70;;;12.20;99.90;;;;;;2616877;54;20415;-72
2022/10/01 00:57:20;;;;;;;10.77;7.33;;;11.80;99.90;;;;;;2616146;54;20382;-74
2022/10/01 01:07:03;;;;;;;9.33;8.53;;;11.50;99.90;;;;;;2615900;54;21037;-73
2022/10/01 01:13:00;;;;;;;8.27;6.87;;;11.40;99.90;;;;;;2615676;54;20561;-72
2022/10/01 01:25:25;;;;;;;8.20;6.83;;;11.20;99.90;;;;;;2614740;54;20444;-74
2022/10/01 01:31:15;;;;;;;8.93;7.90;;;11.10;99.90;;;;;;2614305;39;20763;-73
2022/10/01 01:43:21;;;;;;;11.20;7.78;;;11.00;99.90;;;;;;2613981;54;20495;-73
2022/10/01 01:49:08;;;;;;;8.83;7.73;;;11.00;99.90;;;;;;2614550;54;20944;-72
2022/10/01 01:54:56;;;;;;;10.87;8.47;;;11.00;99.90;;;;;;2614519;54;20134;-73
2022/10/01 02:00:47;;;;;;;7.47;6.67;;;11.00;99.90;;;;;;2616103;54;20422;-74
2022/10/01 02:26:24;;;;;;;14.63;6.80;;;10.90;99.90;;;;;;2615592;54;20177;-74
2022/10/01 02:32:14;;;;;;;7.90;7.13;;;10.90;99.90;;;;;;2614379;54;20391;-74
2022/10/01 02:38:05;;;;;;;9.13;7.17;;;10.80;99.90;;;;;;2615468;54;20435;-68
2022/10/01 02:44:00;;;;;;;8.03;7.23;;;10.80;99.90;;;;;;2615009;54;20383;-72
2022/10/01 02:49:49;;;;;;;7.60;6.00;;;10.70;99.90;;;;;;2615966;39;20754;-69
2022/10/01 02:55:40;;;;;;;7.13;5.27;;;10.70;99.90;;;;;;2615008;54;20387;-72
2022/10/01 03:01:28;;;;;;;7.93;7.23;;;10.70;99.90;;;;;;2615361;54;20378;-69
2022/10/01 03:11:34;;;;;;;5.60;5.07;;;10.70;99.90;;;;;;2615046;54;20261;-69
2022/10/01 03:17:21;;;;;;;8.63;7.00;;;10.70;99.90;;;;;;2615756;54;20383;-69
2022/10/01 03:23:09;;;;;;;7.07;6.47;;;10.60;99.90;;;;;;2615575;54;20138;-70
2022/10/01 03:28:56;;;;;;;7.17;5.77;;;10.60;99.90;;;;;;2615579;54;20662;-68
2022/10/01 03:34:45;;;;;;;7.00;6.33;;;10.70;99.90;;;;;;2615587;54;20131;-69
2022/10/01 03:40:36;;;;;;;7.43;6.77;;;10.60;99.90;;;;;;2615884;54;20227;-69
2022/10/01 03:46:25;;;;;;;6.70;5.77;;;10.60;99.90;;;;;;2616019;54;20158;-72
2022/10/01 03:52:12;;;;;;;8.60;7.67;;;10.60;99.90;;;;;;2616659;54;20399;-69
2022/10/01 03:58:01;;;;;;;8.10;6.80;;;10.60;99.90;;;;;;2616415;54;20122;-68
2022/10/01 04:03:49;;;;;;;6.90;5.80;;;10.60;99.90;;;;;;2616486;54;20362;-71
2022/10/01 04:07:03;;;;;;;196.27;13.60;;;10.70;99.90;;;;;;2615260;54;20551;-70
2022/10/01 04:09:29;;;;;;;5.20;4.63;;;10.70;99.90;;;;;;2616083;54;20410;-68
2022/10/01 04:15:16;;;;;;;5.50;4.60;;;10.70;99.90;;;;;;2616038;54;20199;-69
2022/10/01 04:21:04;;;;;;;5.43;4.13;;;10.70;99.90;;;;;;2616611;39;20597;-70
2022/10/01 04:26:52;;;;;;;4.00;3.30;;;10.70;99.90;;;;;;2615624;54;20142;-69
2022/10/01 04:29:55;;;;;;;4.03;3.73;;;10.80;99.90;;;;;;2615517;54;20427;-69
2022/10/01 04:32:21;;;;;;;5.30;4.80;;;10.90;99.90;;;;;;2615479;51;20253;-67
2022/10/01 04:38:15;;;;;;;4.23;3.83;;;11.00;99.90;;;;;;2616193;54;20195;-69
2022/10/01 04:44:03;;;;;;;3.60;3.10;;;11.00;99.90;;;;;;2615212;54;20393;-67
2022/10/01 04:49:50;;;;;;;4.00;3.60;;;11.10;99.90;;;;;;2615404;54;20118;-68
2022/10/01 04:55:38;;;;;;;3.20;2.85;;;11.20;99.90;;;;;;2614676;54;20520;-69
2022/10/01 05:01:26;;;;;;;3.43;2.33;;;11.20;99.90;;;;;;2614373;54;20139;-68
2022/10/01 05:11:36;;;;;;;3.80;2.72;;;11.40;99.90;;;;;;2615279;54;20413;-70
2022/10/01 05:17:23;;;;;;;2.67;2.47;;;11.40;99.90;;;;;;2615383;46;20439;-68
2022/10/01 05:23:11;;;;;;;5.43;3.13;;;11.50;99.90;;;;;;2614906;54;20392;-67
2022/10/01 05:28:59;;;;;;;2.40;2.20;;;11.40;99.90;;;;;;2616015;31;20641;-69
2022/10/01 05:34:46;;;;;;;2.67;2.47;;;11.30;99.90;;;;;;2614496;54;20193;-68
2022/10/01 05:40:34;;;;;;;5.63;2.20;;;11.20;99.90;;;;;;2615316;54;20170;-69
2022/10/01 05:46:22;;;;;;;3.78;2.25;;;11.30;99.90;;;;;;2615715;54;20118;-68
2022/10/01 05:52:11;;;;;;;3.43;2.17;;;11.20;99.90;;;;;;2614858;54;20131;-68
2022/10/01 05:58:00;;;;;;;2.27;1.93;;;11.30;99.90;;;;;;2614554;54;20463;-69
2022/10/01 06:03:51;;;;;;;2.67;2.10;;;11.30;99.90;;;;;;2615051;46;20381;-69
2022/10/01 06:07:03;;;;;;;2.03;1.70;;;11.40;99.90;;;;;;2613306;54;20507;-70
2022/10/01 06:09:28;;;;;;;1.90;1.70;;;11.40;99.90;;;;;;2615557;39;20636;-72
2022/10/01 06:15:17;;;;;;;4.40;2.20;;;11.50;99.90;;;;;;2613231;54;20138;-68
2022/10/01 06:21:05;;;;;;;2.60;1.88;;;11.60;99.90;;;;;;2613167;54;20372;-70
2022/10/01 06:26:53;;;;;;;3.80;2.20;;;11.60;99.90;;;;;;2612715;54;20395;-68
2022/10/01 06:32:41;;;;;;;2.73;1.30;;;11.60;99.90;;;;;;2612319;54;20145;-68
2022/10/01 06:38:29;;;;;;;2.63;1.90;;;11.50;99.90;;;;;;2612845;54;20125;-68
2022/10/01 06:44:18;;;;;;;1.50;1.40;;;11.60;99.90;;;;;;2612856;54;20762;-69
2022/10/01 06:50:06;;;;;;;1.95;1.70;;;11.60;99.90;;;;;;2613922;54;20363;-71
2022/10/01 06:55:55;;;;;;;2.20;1.60;;;11.60;99.90;;;;;;2614210;54;20363;-75
2022/10/01 07:01:42;;;;;;;1.97;1.77;;;11.70;99.90;;;;;;2616539;39;21062;-69
2022/10/01 07:11:37;;;;;;;4.90;2.20;;;11.80;99.90;;;;;;2617170;54;20403;-69
2022/10/01 07:17:24;;;;;;;4.07;2.83;;;11.80;99.90;;;;;;2613887;54;20889;-69
2022/10/01 07:23:14;;;;;;;2.03;1.77;;;11.80;99.90;;;;;;2613655;54;20153;-70
2022/10/01 07:29:02;;;;;;;1.30;1.00;;;11.90;99.90;;;;;;2614910;54;20122;-67
2022/10/01 07:34:49;;;;;;;1.70;1.50;;;11.80;99.90;;;;;;2616412;54;20138;-68
2022/10/01 07:40:37;;;;;;;2.10;1.60;;;11.90;99.90;;;;;;2616738;54;20168;-69
2022/10/01 07:46:25;;;;;;;3.20;1.80;;;12.00;99.90;;;;;;2615976;54;20134;-69
2022/10/01 07:52:12;;;;;;;2.80;2.45;;;12.10;99.90;;;;;;2616697;54;20815;-69
2022/10/01 07:58:00;;;;;;;2.27;1.70;;;12.10;99.90;;;;;;2616685;54;20149;-70
2022/10/01 08:03:49;;;;;;;2.80;2.03;;;12.30;99.90;;;;;;2615604;54;20433;-68
2022/10/01 08:07:04;;;;;;;2.65;1.90;;;12.40;99.90;;;;;;2615003;46;20395;-69
2022/10/01 08:09:29;;;;;;;1.73;1.57;;;12.50;99.90;;;;;;2614952;54;20234;-70
2022/10/01 08:15:17;;;;;;;2.15;1.60;;;12.80;99.90;;;;;;2614977;39;20524;-69
2022/10/01 08:21:06;;;;;;;2.90;1.90;;;13.30;99.90;;;;;;2615403;54;20170;-68
2022/10/01 08:26:56;;;;;;;3.40;2.17;;;13.40;99.90;;;;;;2614867;54;20396;-72
2022/10/01 08:32:44;;;;;;;2.77;1.80;;;13.80;99.90;;;;;;2615339;54;20447;-69
2022/10/01 08:38:32;;;;;;;3.70;2.47;;;14.10;99.90;;;;;;2613717;54;20215;-69
2022/10/01 08:44:26;;;;;;;3.00;1.97;;;15.40;99.90;;;;;;2615696;54;20142;-71
2022/10/01 08:56:53;;;;;;;8.00;3.20;;;15.50;99.90;;;;;;2614462;54;20390;-69
2022/10/01 09:02:43;;;;;;;2.60;2.30;;;14.90;99.90;;;;;;2615228;54;20956;-70
2022/10/01 09:31:46;;;;;;;2.37;2.17;;;15.30;99.90;;;;;;2609910;54;20391;-69
2022/10/01 09:37:39;;;;;;;5.60;3.43;;;15.40;99.90;;;;;;2613371;54;20410;-72
2022/10/01 09:43:32;;;;;;;3.90;2.40;;;15.10;99.90;;;;;;2610934;54;20402;-71
2022/10/01 09:46:48;;;;;;;3.30;2.42;;;15.00;99.90;;;;;;2611708;54;20502;-71
2022/10/01 09:55:57;;;;;;;5.05;2.80;;;14.50;99.90;;;;;;2611483;54;20234;-70
2022/10/01 10:01:49;;;;;;;4.50;3.17;;;14.70;99.90;;;;;;2612429;54;20403;-71
2022/10/01 10:11:55;;;;;;;7.00;4.13;;;14.10;99.90;;;;;;2611791;54;20377;-71
2022/10/01 10:17:48;;;;;;;3.53;3.20;;;14.20;99.90;;;;;;2613222;54;20429;-70
2022/10/01 10:27:26;;;;;;;3.43;2.00;;;14.50;99.90;;;;;;2611222;54;20411;-68
2022/10/01 10:30:02;;;;;;;3.63;2.50;;;14.60;99.90;;;;;;2610737;54;20913;-72
2022/10/01 10:36:03;;;;;;;5.10;3.60;;;15.40;99.90;;;;;;2609541;54;20383;-69
2022/10/01 10:41:52;;;;;;;4.15;3.53;;;16.60;99.90;;;;;;2613812;54;20423;-69
2022/10/01 10:47:45;;;;;;;4.00;3.60;;;17.50;99.90;;;;;;2611587;54;20390;-73
2022/10/01 10:53:44;;;;;;;6.80;4.40;;;17.80;99.90;;;;;;2609832;54;20504;-71
2022/10/01 10:59:32;;;;;;;5.10;4.43;;;17.30;99.90;;;;;;2613573;54;20391;-69
2022/10/01 11:05:23;;;;;;;4.23;3.83;;;17.70;99.90;;;;;;2612054;54;20446;-68
2022/10/01 11:31:49;;;;;;;4.57;3.13;;;17.90;99.90;;;;;;2613120;54;20399;-69
2022/10/01 11:50:27;;;;;;;6.23;4.10;;;18.30;99.90;;;;;;2614874;54;20419;-72
2022/10/01 12:02:33;;;;;;;14.27;4.47;;;17.70;99.90;;;;;;2614541;54;20367;-72
2022/10/01 12:08:26;;;;;;;6.47;4.03;;;16.80;99.90;;;;;;2616218;54;20494;-70
2022/10/01 12:20:48;;;;;;;7.47;3.80;;;16.90;99.90;;;;;;2615038;39;20570;-69
2022/10/01 12:39:55;;;;;;;5.27;3.53;;;18.80;99.90;;;;;;2614404;54;20452;-71
2022/10/01 12:45:45;;;;;;;5.70;3.90;;;18.70;99.90;;;;;;2613659;54;20171;-69
2022/10/01 13:02:19;;;;;;;7.40;3.70;;;17.60;99.90;;;;;;2610191;54;20523;-70
2022/10/01 13:31:36;;;;;;;8.47;2.80;;;17.90;99.90;;;;;;2611262;54;20396;-73
2022/10/01 13:37:29;;;;;;;9.63;2.57;;;17.50;99.90;;;;;;2614243;39;20767;-71
2022/10/01 13:43:20;;;;;;;9.70;3.80;;;17.30;99.90;;;;;;2612309;54;20419;-71
2022/10/01 13:55:45;;;;;;;10.30;3.00;;;16.80;99.90;;;;;;2613282;54;20370;-70
2022/10/01 14:01:41;;;;;;;8.80;3.03;;;17.30;99.90;;;;;;2613549;54;20423;-71
2022/10/01 14:40:37;;;;;;;5.00;2.50;;;17.50;98.40;;;;;;2615033;54;20483;-71
2022/10/01 14:46:25;;;;;;;4.88;2.45;;;16.50;99.90;;;;;;2615242;54;20342;-70
2022/10/01 15:14:24;;;;;;;6.73;2.60;;;19.90;81.70;;;;;;2615808;54;20402;-70
2022/10/01 15:20:12;;;;;;;9.87;2.80;;;19.20;76.40;;;;;;2613363;54;20386;-71
2022/10/01 15:26:02;;;;;;;6.23;2.53;;;20.60;66.50;;;;;;2614044;54;20377;-71
2022/10/01 15:31:52;;;;;;;5.90;2.25;;;20.20;60.60;;;;;;2616024;54;20393;-72
2022/10/01 15:37:41;;;;;;;10.65;4.03;;;20.50;63.70;;;;;;2615789;54;20426;-71
2022/10/01 15:43:36;;;;;;;9.00;2.40;;;18.80;68.30;;;;;;2614851;54;20435;-71
2022/10/01 15:49:24;;;;;;;4.53;2.20;;;17.90;69.70;;;;;;2616065;54;20406;-73
2022/10/01 15:55:14;;;;;;;3.53;1.97;;;18.30;65.90;;;;;;2615284;54;20553;-71
2022/10/01 16:01:11;;;;;;;6.28;2.28;;;18.40;66.90;;;;;;2615808;54;20423;-70
2022/10/01 16:06:59;;;;;;;6.83;2.40;;;18.70;67.10;;;;;;2612671;54;20419;-71
2022/10/01 16:16:12;;;;;;;8.60;2.33;;;18.10;65.90;;;;;;2612424;39;20817;-70
2022/10/01 16:28:44;;;;;;;7.68;2.20;;;17.00;69.90;;;;;;2611911;54;20507;-71
2022/10/01 16:34:32;;;;;;;5.97;2.63;;;16.70;71.40;;;;;;2615831;54;20170;-71
2022/10/01 16:40:22;;;;;;;8.47;2.70;;;16.60;77.70;;;;;;2614597;54;20149;-72
2022/10/01 16:46:10;;;;;;;5.20;2.37;;;16.50;78.40;;;;;;2614545;54;20374;-72
2022/10/01 16:51:58;;;;;;;4.23;2.70;;;16.10;86.50;;;;;;2615859;54;20137;-69
2022/10/01 16:57:46;;;;;;;5.63;2.50;;;15.80;93.10;;;;;;2614134;54;20126;-71
2022/10/01 17:03:35;;;;;;;8.80;4.40;;;15.60;95.90;;;;;;2613893;54;20134;-70
2022/10/01 17:09:23;;;;;;;19.85;4.50;;;15.40;99.80;;;;;;2614454;54;20713;-71
2022/10/01 17:18:32;;;;;;;9.43;5.83;;;15.00;99.90;;;;;;2612333;39;20823;-71
2022/10/01 17:24:21;;;;;;;6.27;3.93;;;14.90;99.90;;;;;;2613533;39;20534;-70
2022/10/01 17:30:09;;;;;;;14.77;4.23;;;14.60;99.90;;;;;;2614056;31;20631;-71
2022/10/01 17:35:56;;;;;;;4.50;2.50;;;14.40;99.90;;;;;;2613857;54;20389;-71
2022/10/01 17:41:44;;;;;;;6.80;3.00;;;14.40;99.90;;;;;;2612553;54;20158;-71
2022/10/01 17:47:32;;;;;;;11.98;4.47;;;14.40;99.90;;;;;;2615390;54;20138;-70
2022/10/01 17:53:20;;;;;;;5.22;3.05;;;14.60;99.90;;;;;;2612293;46;20411;-71
2022/10/01 17:59:08;;;;;;;8.50;3.10;;;14.70;99.90;;;;;;2612910;46;20634;-71
2022/10/01 18:04:56;;;;;;;10.15;4.00;;;14.60;99.90;;;;;;2613340;54;20122;-73
2022/10/01 18:10:44;;;;;;;4.57;3.07;;;14.50;99.90;;;;;;2613523;54;20380;-73
2022/10/01 18:13:55;;;;;;;6.43;3.87;;;14.50;99.90;;;;;;2613922;47;20451;-71
2022/10/01 18:16:21;;;;;;;15.27;4.10;;;14.40;99.90;;;;;;2614269;47;20164;-71
2022/10/01 18:22:13;;;;;;;4.53;3.70;;;14.30;99.90;;;;;;2608680;54;20150;-70
2022/10/01 18:28:00;;;;;;;6.40;3.80;;;14.30;99.90;;;;;;2613208;54;20516;-73
2022/10/01 18:33:52;;;;;;;8.90;3.97;;;14.20;99.90;;;;;;2611312;54;20131;-71
2022/10/01 18:39:44;;;;;;;10.48;4.13;;;14.10;99.90;;;;;;2611447;54;20391;-70
2022/10/01 18:52:16;;;;;;;7.73;5.00;;;14.00;99.90;;;;;;2612170;54;20948;-72
2022/10/01 19:24:45;;;;;;;16.95;5.15;;;13.60;99.90;;;;;;2611125;54;20508;-72
2022/10/01 19:44:07;;;;;;;8.90;3.67;;;13.00;99.90;;;;;;2612757;54;20472;-71
2022/10/01 19:50:05;;;;;;;11.33;3.83;;;13.00;99.90;;;;;;2613210;54;20376;-75
2022/10/01 19:55:53;;;;;;;17.40;4.40;;;12.80;99.90;;;;;;2609725;54;20431;-71
2022/10/01 20:01:55;;;;;;;17.73;3.95;;;12.90;99.90;;;;;;2611983;54;20547;-71
2022/10/01 20:21:36;;;;;;;11.00;4.97;;;12.10;99.90;;;;;;2611815;54;20386;-72
2022/10/01 20:40:23;;;;;;;10.23;5.33;;;12.10;99.90;;;;;;2613706;54;20391;-73
2022/10/01 20:46:17;;;;;;;11.73;4.80;;;12.10;99.90;;;;;;2614372;54;20375;-71
2022/10/01 20:52:33;;;;;;;14.13;5.40;;;12.00;99.90;;;;;;2613722;54;20390;-71
2022/10/01 21:04:46;;;;;;;13.30;5.33;;;12.00;99.90;;;;;;2614013;39;20774;-73
2022/10/01 21:10:43;;;;;;;9.73;5.20;;;12.20;99.90;;;;;;2613763;54;20395;-72
2022/10/01 21:30:03;;;;;;;7.20;4.30;;;12.20;99.90;;;;;;2613353;54;20511;-72
2022/10/01 21:36:06;;;;;;;14.13;5.40;;;12.30;99.90;;;;;;2614462;54;20378;-72
2022/10/01 21:42:00;;;;;;;13.33;5.67;;;12.30;99.90;;;;;;2611689;54;20503;-73
2022/10/01 21:47:48;;;;;;;13.63;5.17;;;12.40;99.90;;;;;;2615381;54;21365;-72
2022/10/01 21:53:41;;;;;;;10.15;4.30;;;12.40;99.90;;;;;;2615193;54;20142;-72
2022/10/01 22:06:22;;;;;;;16.70;4.57;;;12.20;99.90;;;;;;2615444;54;20130;-72
2022/10/01 22:12:10;;;;;;;15.07;4.93;;;12.30;99.90;;;;;;2614331;54;20418;-71
2022/10/01 22:18:03;;;;;;;13.48;4.97;;;12.60;99.90;;;;;;2613715;54;20205;-71
2022/10/01 22:21:15;;;;;;;13.13;4.53;;;12.60;99.90;;;;;;2613449;54;20166;-71
2022/10/01 22:33:37;;;;;;;15.63;5.33;;;12.50;99.90;;;;;;2611875;54;20399;-72
2022/10/01 22:39:36;;;;;;;11.82;4.50;;;12.60;99.90;;;;;;2614593;54;20395;-72
2022/10/01 22:55:18;;;;;;;16.02;4.75;;;12.50;99.90;;;;;;2613082;39;20858;-72
2022/10/01 23:01:14;;;;;;;16.63;4.70;;;12.50;99.90;;;;;;2613776;54;20528;-72
2022/10/01 23:11:03;;;;;;;17.27;4.37;;;12.70;99.90;;;;;;2613848;54;21014;-71
2022/10/01 23:23:32;;;;;;;7.72;4.45;;;12.60;99.90;;;;;;2613598;54;20425;-72
2022/10/01 23:36:13;;;;;;;12.73;4.70;;;12.70;99.90;;;;;;2615226;54;20390;-71
2022/10/01 23:42:08;;;;;;;12.68;5.00;;;12.40;99.90;;;;;;2613901;54;20402;-70
